createdAt,value
2023-05-03T00:01:31.985Z,103052.72
2023-05-03T00:03:59.755Z,103055.44
2023-05-03T00:06:28.026Z,103057.22
2023-05-03T00:08:55.708Z,103051.84
2023-05-03T00:11:23.327Z,103050.97
2023-05-03T00:13:50.938Z,103050.97
2023-05-03T00:16:19.999Z,103055.47
2023-05-03T00:18:49.090Z,103055.47
2023-05-03T00:21:17.011Z,103060.84
2023-05-03T00:23:44.568Z,103065.31
2023-05-03T00:26:12.215Z,103059.06
2023-05-03T00:28:39.893Z,103057.28
2023-05-03T00:31:09.407Z,103055.50
2023-05-03T00:33:39.023Z,103057.28
2023-05-03T00:36:10.536Z,103054.63
2023-05-03T00:38:38.499Z,103060.00
2023-05-03T00:41:06.825Z,103062.63
2023-05-03T00:43:35.692Z,103061.75
2023-05-03T00:46:15.816Z,103060.88
2023-05-03T00:48:46.235Z,103057.31
2023-05-03T00:51:15.419Z,103058.19
2023-05-03T00:53:43.709Z,103059.09
2023-05-03T00:56:12.287Z,103057.31
2023-05-03T00:58:40.485Z,103053.75
2023-05-03T01:01:08.757Z,103060.00
2023-05-03T01:03:37.982Z,103055.53
2023-05-03T01:06:14.700Z,103062.69
2023-05-03T01:08:50.426Z,103066.28
2023-05-03T01:11:25.532Z,103066.25
2023-05-03T01:13:57.187Z,103060.91
2023-05-03T01:16:32.202Z,103062.69
2023-05-03T01:19:04.928Z,103054.66
2023-05-03T01:21:35.540Z,103051.97
2023-05-03T01:24:08.604Z,103048.44
2023-05-03T01:26:37.589Z,103045.75
2023-05-03T01:29:06.830Z,103041.28
2023-05-03T01:31:39.428Z,103038.63
2023-05-03T01:34:19.435Z,103031.44
2023-05-03T01:36:47.481Z,103031.50
2023-05-03T01:39:19.562Z,103030.56
2023-05-03T01:41:51.825Z,103019.88
2023-05-03T01:44:20.533Z,103014.53
2023-05-03T01:46:49.683Z,103016.31
2023-05-03T01:49:17.301Z,103007.41
2023-05-03T01:51:44.913Z,103010.97
2023-05-03T01:54:12.590Z,103003.81
2023-05-03T01:56:40.245Z,103005.63
2023-05-03T01:59:09.307Z,102991.31
2023-05-03T02:01:36.894Z,102984.19
2023-05-03T02:04:04.698Z,102977.03
2023-05-03T02:06:32.655Z,102979.72
2023-05-03T02:09:00.284Z,102972.59
2023-05-03T02:11:27.888Z,102978.84
2023-05-03T02:13:55.785Z,102973.50
2023-05-03T02:16:24.884Z,102977.06
2023-05-03T02:18:53.769Z,102973.50
2023-05-03T02:21:21.464Z,102973.50
2023-05-03T02:23:49.122Z,102977.97
2023-05-03T02:26:16.726Z,102987.78
2023-05-03T02:28:44.398Z,102982.44
2023-05-03T02:31:13.549Z,102989.59
2023-05-03T02:33:42.651Z,102998.53
2023-05-03T02:36:10.525Z,102998.53
2023-05-03T02:38:38.262Z,103007.47
2023-05-03T02:41:06.062Z,103001.19
2023-05-03T02:43:33.637Z,103013.72
2023-05-03T02:46:01.401Z,103014.59
2023-05-03T02:48:29.104Z,103018.16
2023-05-03T02:50:58.299Z,103029.78
2023-05-03T02:53:26.065Z,103021.75
2023-05-03T02:55:53.730Z,103023.56
2023-05-03T02:58:21.331Z,103023.56
2023-05-03T03:00:48.981Z,103034.28
2023-05-03T03:03:16.709Z,103036.06
2023-05-03T03:05:44.377Z,103036.06
2023-05-03T03:08:13.339Z,103044.09
2023-05-03T03:10:40.952Z,103042.31
2023-05-03T03:13:08.622Z,103039.63
2023-05-03T03:15:36.263Z,103035.16
2023-05-03T03:18:04.199Z,103036.94
2023-05-03T03:20:32.154Z,103032.50
2023-05-03T03:22:59.851Z,103027.16
2023-05-03T03:25:28.886Z,103029.84
2023-05-03T03:27:56.904Z,103023.56
2023-05-03T03:30:24.532Z,103021.78
2023-05-03T03:32:52.225Z,103020.91
2023-05-03T03:35:20.668Z,103024.47
2023-05-03T03:37:48.374Z,103023.59
2023-05-03T03:40:16.215Z,103026.28
2023-05-03T03:42:45.295Z,103023.56
2023-05-03T03:45:13.023Z,103024.47
2023-05-03T03:47:40.867Z,103033.38
2023-05-03T03:50:08.887Z,103028.94
2023-05-03T03:52:36.512Z,103030.72
2023-05-03T03:55:04.366Z,103045.03
2023-05-03T03:57:32.091Z,103037.88
2023-05-03T04:00:01.688Z,103041.44
2023-05-03T04:02:29.648Z,103042.34
2023-05-03T04:04:57.374Z,103045.91
2023-05-03T04:07:24.989Z,103043.22
2023-05-03T04:09:53.140Z,103045.91
2023-05-03T04:12:20.831Z,103052.16
2023-05-03T04:14:48.627Z,103043.25
2023-05-03T04:17:17.607Z,103042.34
2023-05-03T04:19:45.273Z,103037.00
2023-05-03T04:22:12.891Z,103036.13
2023-05-03T04:24:40.618Z,103037.88
2023-05-03T04:27:08.850Z,103031.66
2023-05-03T04:29:38.658Z,103030.75
2023-05-03T04:32:06.787Z,103025.41
2023-05-03T04:34:35.978Z,103028.97
2023-05-03T04:37:05.122Z,103031.66
2023-05-03T04:39:32.972Z,103038.78
2023-05-03T04:42:01.317Z,103028.06
2023-05-03T04:44:29.400Z,103033.41
2023-05-03T04:46:57.058Z,103037.91
2023-05-03T04:49:24.680Z,103040.59
2023-05-03T04:51:54.490Z,103040.59
2023-05-03T04:54:23.372Z,103043.25
2023-05-03T04:56:51.597Z,103037.03
2023-05-03T04:59:19.181Z,103041.47
2023-05-03T05:01:47.143Z,103040.59
2023-05-03T05:04:14.913Z,103045.94
2023-05-03T05:06:42.665Z,103050.38
2023-05-03T05:09:24.432Z,103047.72
2023-05-03T05:11:53.949Z,103044.16
2023-05-03T05:14:24.037Z,103045.06
2023-05-03T05:16:52.094Z,103049.53
2023-05-03T05:19:19.829Z,103047.72
2023-05-03T05:21:48.072Z,103047.72
2023-05-03T05:24:17.101Z,103047.72
2023-05-03T05:26:45.052Z,103053.09
2023-05-03T05:29:12.796Z,103051.28
2023-05-03T05:31:40.751Z,103051.28
2023-05-03T05:34:08.512Z,103059.31
2023-05-03T05:36:36.271Z,103054.84
2023-05-03T05:39:04.626Z,103059.31
2023-05-03T05:41:33.795Z,103049.50
2023-05-03T05:44:01.493Z,103054.84
2023-05-03T05:46:29.160Z,103053.97
2023-05-03T05:48:56.913Z,103049.50
2023-05-03T05:51:24.559Z,103050.41
2023-05-03T05:53:52.169Z,103054.84
2023-05-03T05:56:19.811Z,103056.66
2023-05-03T05:58:48.745Z,103059.31
2023-05-03T06:01:16.404Z,103060.22
2023-05-03T06:03:44.036Z,103058.41
2023-05-03T06:06:11.768Z,103059.31
2023-05-03T06:08:39.384Z,103061.13
2023-05-03T06:11:07.807Z,103063.78
2023-05-03T06:13:38.790Z,103066.47
2023-05-03T06:16:08.378Z,103062.00
2023-05-03T06:18:35.978Z,103068.25
2023-05-03T06:21:03.606Z,103062.00
2023-05-03T06:23:32.519Z,103065.56
2023-05-03T06:26:00.228Z,103065.56
2023-05-03T06:28:27.938Z,103070.00
2023-05-03T06:30:55.916Z,103070.91
2023-05-03T06:33:25.495Z,103068.22
2023-05-03T06:35:53.155Z,103064.66
2023-05-03T06:38:21.322Z,103070.91
2023-05-03T06:40:50.008Z,103065.53
2023-05-03T06:43:17.994Z,103061.09
2023-05-03T06:45:46.042Z,103051.28
2023-05-03T06:48:13.782Z,103054.84
2023-05-03T06:50:42.877Z,103045.91
2023-05-03T06:53:10.569Z,103041.47
2023-05-03T06:55:38.168Z,103044.13
2023-05-03T06:58:10.045Z,103046.78
2023-05-03T07:00:39.064Z,103045.03
2023-05-03T07:03:07.067Z,103049.44
2023-05-03T07:05:35.210Z,103055.72
2023-05-03T07:08:04.625Z,103052.13
2023-05-03T07:10:32.314Z,103049.44
2023-05-03T07:12:59.959Z,103049.44
2023-05-03T07:15:28.073Z,103040.53
2023-05-03T07:17:55.815Z,103039.63
2023-05-03T07:20:23.521Z,103040.53
2023-05-03T07:22:51.148Z,103041.41
2023-05-03T07:25:20.345Z,103047.66
2023-05-03T07:27:47.963Z,103036.06
2023-05-03T07:30:15.957Z,103039.63
2023-05-03T07:32:43.782Z,103046.75
2023-05-03T07:35:12.142Z,103053.88
2023-05-03T07:37:39.922Z,103048.53
2023-05-03T07:40:09.759Z,103055.69
2023-05-03T07:42:38.838Z,103055.69
2023-05-03T07:45:07.809Z,103044.09
2023-05-03T07:47:38.128Z,103041.41
2023-05-03T07:50:07.314Z,103036.94
2023-05-03T07:52:37.344Z,103033.34
2023-05-03T07:55:06.753Z,103039.63
2023-05-03T07:57:34.432Z,103056.56
2023-05-03T08:00:04.519Z,103070.84
2023-05-03T08:02:32.623Z,103061.91
2023-05-03T08:05:00.622Z,103063.69
2023-05-03T08:07:29.694Z,103069.94
2023-05-03T08:09:58.581Z,103069.03
2023-05-03T08:12:26.824Z,103069.03
2023-05-03T08:14:55.502Z,103072.63
2023-05-03T08:17:24.662Z,103074.41
2023-05-03T08:19:52.262Z,103073.53
2023-05-03T08:22:20.622Z,103067.25
2023-05-03T08:24:48.275Z,103063.69
2023-05-03T08:27:15.890Z,103059.25
2023-05-03T08:29:43.529Z,103061.91
2023-05-03T08:32:11.284Z,103061.91
2023-05-03T08:34:40.684Z,103062.78
2023-05-03T08:37:08.314Z,103061.88
2023-05-03T08:39:35.966Z,103059.22
2023-05-03T08:42:08.198Z,103049.41
2023-05-03T08:44:39.437Z,103055.63
2023-05-03T08:47:07.496Z,103049.41
2023-05-03T08:49:36.780Z,103046.72
2023-05-03T08:52:07.571Z,103045.81
2023-05-03T08:54:35.244Z,103048.47
2023-05-03T08:57:02.983Z,103053.81
2023-05-03T08:59:30.709Z,103055.63
2023-05-03T09:01:58.492Z,103059.19
2023-05-03T09:04:34.768Z,103058.28
2023-05-03T09:07:10.434Z,103052.88
2023-05-03T09:09:38.367Z,103055.59
2023-05-03T09:12:06.838Z,103066.31
2023-05-03T09:14:43.730Z,103068.06
2023-05-03T09:17:19.256Z,103055.56
2023-05-03T09:19:54.548Z,103062.69
2023-05-03T09:22:24.248Z,103067.19
2023-05-03T09:24:55.786Z,103057.38
2023-05-03T09:27:24.990Z,103058.25
2023-05-03T09:29:53.386Z,103056.50
2023-05-03T09:32:21.992Z,103061.88
2023-05-03T09:34:49.777Z,103064.53
2023-05-03T09:37:17.477Z,103059.19
2023-05-03T09:39:47.819Z,103064.53
2023-05-03T09:42:17.026Z,103062.78
2023-05-03T09:44:48.650Z,103062.75
2023-05-03T09:47:16.569Z,103068.16
2023-05-03T09:49:45.057Z,103070.81
2023-05-03T09:52:13.254Z,103065.50
2023-05-03T09:54:41.091Z,103069.03
2023-05-03T09:57:10.149Z,103069.03
2023-05-03T09:59:39.898Z,103071.75
2023-05-03T10:02:09.021Z,103073.53
2023-05-03T10:04:41.602Z,103073.53
2023-05-03T10:07:13.480Z,103071.72
2023-05-03T10:09:43.026Z,103069.94
2023-05-03T10:12:17.094Z,103069.97
2023-05-03T10:14:46.791Z,103080.66
2023-05-03T10:17:19.762Z,103076.19
2023-05-03T10:19:51.801Z,103075.31
2023-05-03T10:22:19.455Z,103084.22
2023-05-03T10:25:09.448Z,103069.94
2023-05-03T10:27:52.373Z,103075.28
2023-05-03T10:30:32.387Z,103065.47
2023-05-03T10:33:00.715Z,103069.03
2023-05-03T10:35:29.353Z,103063.69
2023-05-03T10:37:58.590Z,103048.47
2023-05-03T10:40:43.080Z,103051.16
2023-05-03T10:43:46.871Z,103044.03
2023-05-03T10:46:34.845Z,103053.88
2023-05-03T10:49:22.437Z,103045.00
2023-05-03T10:51:50.625Z,103050.34
2023-05-03T10:54:19.507Z,103032.50
2023-05-03T10:56:55.334Z,103048.56
2023-05-03T10:59:26.094Z,103043.22
2023-05-03T11:01:54.560Z,103048.56
2023-05-03T11:04:40.653Z,103047.69
2023-05-03T11:07:10.107Z,103044.09
2023-05-03T11:09:38.580Z,103035.19
2023-05-03T11:12:08.579Z,103037.84
2023-05-03T11:14:39.632Z,103034.31
2023-05-03T11:17:07.443Z,103027.16
2023-05-03T11:19:35.881Z,103027.16
2023-05-03T11:22:03.653Z,103023.56
2023-05-03T11:24:31.390Z,103015.53
2023-05-03T11:26:59.131Z,103012.88
2023-05-03T11:29:27.284Z,103004.84
2023-05-03T11:31:56.905Z,103010.19
2023-05-03T11:34:25.550Z,103011.09
2023-05-03T11:36:53.191Z,103001.25
2023-05-03T11:39:21.539Z,103004.84
2023-05-03T11:42:04.464Z,103005.72
2023-05-03T11:44:32.417Z,102997.75
2023-05-03T11:47:01.999Z,103002.19
2023-05-03T11:49:30.227Z,103007.53
2023-05-03T11:51:57.944Z,103000.41
2023-05-03T11:54:27.965Z,102996.84
2023-05-03T11:57:00.002Z,103004.00
2023-05-03T11:59:38.572Z,102992.38
2023-05-03T12:02:09.245Z,102996.88
2023-05-03T12:04:41.446Z,103000.47
2023-05-03T12:07:11.024Z,102983.50
2023-05-03T12:09:39.939Z,102983.53
2023-05-03T12:12:10.459Z,102981.72
2023-05-03T12:14:58.716Z,102979.03
2023-05-03T12:17:39.092Z,102981.75
2023-05-03T12:22:51.228Z,102985.28
2023-05-03T12:25:20.918Z,102980.84
2023-05-03T12:28:01.968Z,102979.09
2023-05-03T12:30:40.048Z,102972.81
2023-05-03T12:33:10.716Z,102969.25
2023-05-03T12:35:40.837Z,102968.38
2023-05-03T12:38:10.390Z,102963.91
2023-05-03T12:40:39.386Z,102960.31
2023-05-03T12:43:07.563Z,102956.75
2023-05-03T12:45:38.628Z,102960.28
2023-05-03T12:48:09.725Z,102952.25
2023-05-03T12:50:39.441Z,102953.13
2023-05-03T12:53:10.003Z,102954.88
2023-05-03T12:55:43.104Z,102944.16
2023-05-03T12:58:43.282Z,102934.31
2023-05-03T13:03:34.352Z,102929.84
2023-05-03T13:06:12.705Z,102934.25
2023-05-03T13:08:49.335Z,102938.72
2023-05-03T13:11:19.052Z,102941.38
2023-05-03T13:13:47.101Z,102937.78
2023-05-03T13:16:14.965Z,102936.84
2023-05-03T13:18:45.284Z,102924.34
2023-05-03T13:21:13.095Z,102919.84
2023-05-03T13:23:40.793Z,102914.47
2023-05-03T13:26:08.483Z,102909.97
2023-05-03T13:28:36.186Z,102900.16
2023-05-03T13:31:03.961Z,102906.41
2023-05-03T13:33:31.888Z,102901.94
2023-05-03T13:36:00.842Z,102896.63
2023-05-03T13:38:28.519Z,102894.84
2023-05-03T13:40:56.119Z,102899.34
2023-05-03T13:43:24.024Z,102890.44
2023-05-03T13:45:52.740Z,102887.84
2023-05-03T13:48:20.516Z,102882.53
2023-05-03T13:50:48.173Z,102875.38
2023-05-03T13:53:17.756Z,102873.63
2023-05-03T13:55:45.407Z,102878.13
2023-05-03T13:58:13.289Z,102873.69
2023-05-03T14:00:41.043Z,102866.53
2023-05-03T14:03:08.900Z,102858.53
2023-05-03T14:05:36.776Z,102862.09
2023-05-03T14:08:05.061Z,102862.13
2023-05-03T14:10:36.844Z,102850.53
2023-05-03T14:13:04.684Z,102849.66
2023-05-03T14:15:32.563Z,102847.00
2023-05-03T14:18:03.019Z,102853.25
2023-05-03T14:20:34.341Z,102844.38
2023-05-03T14:23:02.302Z,102846.16
2023-05-03T14:25:30.164Z,102831.88
2023-05-03T14:27:59.100Z,102839.00
2023-05-03T14:30:26.779Z,102836.34
2023-05-03T14:32:54.581Z,102832.78
2023-05-03T14:35:22.713Z,102830.09
2023-05-03T14:37:50.362Z,102830.09
2023-05-03T14:40:18.267Z,102825.63
2023-05-03T14:42:45.983Z,102828.31
2023-05-03T14:45:15.372Z,102823.88
2023-05-03T14:47:43.092Z,102814.06
2023-05-03T14:50:11.595Z,102807.81
2023-05-03T14:52:39.309Z,102806.03
2023-05-03T14:55:08.450Z,102813.19
2023-05-03T14:57:36.414Z,102800.66
2023-05-03T15:00:06.656Z,102805.06
2023-05-03T15:02:35.863Z,102803.22
2023-05-03T15:05:04.709Z,102783.53
2023-05-03T15:07:32.688Z,102790.66
2023-05-03T15:10:03.739Z,102796.84
2023-05-03T15:12:31.710Z,102787.91
2023-05-03T15:14:59.620Z,102785.19
2023-05-03T15:17:27.357Z,102786.06
2023-05-03T15:19:56.675Z,102778.88
2023-05-03T15:22:24.358Z,102793.09
2023-05-03T15:24:52.062Z,102780.69
2023-05-03T15:27:19.689Z,102780.72
2023-05-03T15:29:47.300Z,102781.63
2023-05-03T15:32:15.133Z,102786.13
2023-05-03T15:34:42.923Z,102774.53
2023-05-03T15:37:12.954Z,102777.22
2023-05-03T15:39:40.599Z,102762.09
2023-05-03T15:42:08.528Z,102766.56
2023-05-03T15:44:36.251Z,102764.81
2023-05-03T15:47:03.943Z,102767.38
2023-05-03T15:49:31.704Z,102768.22
2023-05-03T15:51:59.312Z,102769.91
2023-05-03T15:54:28.320Z,102761.81
2023-05-03T15:56:56.339Z,102760.88
2023-05-03T15:59:24.000Z,102758.16
2023-05-03T16:01:52.261Z,102758.97
2023-05-03T16:04:19.934Z,102749.13
2023-05-03T16:06:47.574Z,102740.13
2023-05-03T16:09:16.087Z,102741.91
2023-05-03T16:11:45.064Z,102735.59
2023-05-03T16:14:12.911Z,102730.19
2023-05-03T16:16:41.320Z,102732.84
2023-05-03T16:19:09.246Z,102723.03
2023-05-03T16:21:36.940Z,102729.25
2023-05-03T16:24:04.939Z,102738.16
2023-05-03T16:26:34.395Z,102732.72
2023-05-03T16:29:03.362Z,102728.22
2023-05-03T16:31:31.118Z,102725.53
2023-05-03T16:33:59.039Z,102732.56
2023-05-03T16:36:27.931Z,102728.91
2023-05-03T16:38:55.740Z,102714.53
2023-05-03T16:41:24.181Z,102720.75
2023-05-03T16:43:52.174Z,102731.50
2023-05-03T16:46:23.003Z,102724.38
2023-05-03T16:48:51.252Z,102709.16
2023-05-03T16:51:21.769Z,102717.16
2023-05-03T16:53:49.396Z,102711.78
2023-05-03T16:56:16.982Z,102714.53
2023-05-03T16:58:44.986Z,102708.34
2023-05-03T17:01:13.267Z,102704.72
2023-05-03T17:03:42.658Z,102704.72
2023-05-03T17:06:10.451Z,102704.75
2023-05-03T17:08:38.046Z,102700.38
2023-05-03T17:11:08.422Z,102700.41
2023-05-03T17:13:36.546Z,102700.38
2023-05-03T17:16:09.001Z,102698.53
2023-05-03T17:18:37.833Z,102703.88
2023-05-03T17:21:08.206Z,102703.81
2023-05-03T17:23:37.997Z,102694.06
2023-05-03T17:26:08.326Z,102694.03
2023-05-03T17:28:37.081Z,102700.28
2023-05-03T17:31:06.319Z,102696.75
2023-05-03T17:33:34.879Z,102694.97
2023-05-03T17:36:04.863Z,102699.44
2023-05-03T17:38:34.464Z,102701.31
2023-05-03T17:41:06.310Z,102697.75
2023-05-03T17:43:33.826Z,102704.06
2023-05-03T17:46:08.540Z,102704.16
2023-05-03T17:48:37.811Z,102709.53
2023-05-03T17:51:05.640Z,102704.19
2023-05-03T17:53:35.579Z,102703.34
2023-05-03T17:56:03.297Z,102707.81
2023-05-03T17:58:30.958Z,102711.41
2023-05-03T18:00:58.581Z,102710.53
2023-05-03T18:03:27.413Z,102711.47
2023-05-03T18:05:55.211Z,102707.94
2023-05-03T18:08:22.831Z,102706.19
2023-05-03T18:10:51.922Z,102707.06
2023-05-03T18:13:19.670Z,102707.09
2023-05-03T18:15:47.317Z,102701.69
2023-05-03T18:18:14.926Z,102708.75
2023-05-03T18:20:42.514Z,102710.44
2023-05-03T18:23:10.183Z,102714.78
2023-05-03T18:25:37.816Z,102714.72
2023-05-03T18:28:06.924Z,102711.03
2023-05-03T18:30:34.770Z,102709.13
2023-05-03T18:33:02.474Z,102710.84
2023-05-03T18:35:30.716Z,102710.75
2023-05-03T18:37:58.343Z,102708.88
2023-05-03T18:40:26.202Z,102709.75
2023-05-03T18:42:53.906Z,102704.38
2023-05-03T18:45:22.977Z,102708.84
2023-05-03T18:47:51.058Z,102703.47
2023-05-03T18:50:18.719Z,102699.00
2023-05-03T18:52:46.495Z,102707.91
2023-05-03T18:55:14.142Z,102698.94
2023-05-03T18:57:42.510Z,102698.94
2023-05-03T19:00:11.496Z,102698.94
2023-05-03T19:02:40.805Z,102707.00
2023-05-03T19:05:11.557Z,102702.53
2023-05-03T19:07:42.860Z,102696.28
2023-05-03T19:10:11.100Z,102699.88
2023-05-03T19:12:40.694Z,102696.41
2023-05-03T19:15:09.328Z,102685.69
2023-05-03T19:17:37.023Z,102693.66
2023-05-03T19:20:08.076Z,102688.31
2023-05-03T19:22:35.702Z,102695.44
2023-05-03T19:25:05.156Z,102695.41
2023-05-03T19:27:33.200Z,102693.63
2023-05-03T19:30:02.370Z,102690.97
2023-05-03T19:32:30.335Z,102688.22
2023-05-03T19:34:57.986Z,102690.03
2023-05-03T19:37:27.013Z,102694.47
2023-05-03T19:39:54.708Z,102693.56
2023-05-03T19:42:22.310Z,102698.09
2023-05-03T19:44:49.970Z,102703.44
2023-05-03T19:47:17.628Z,102698.03
2023-05-03T19:49:45.291Z,102700.72
2023-05-03T19:52:12.933Z,102703.41
2023-05-03T19:54:41.862Z,102700.72
2023-05-03T19:57:09.576Z,102698.03
2023-05-03T19:59:37.331Z,102702.47
2023-05-03T20:02:05.064Z,102701.59
2023-05-03T20:04:32.855Z,102698.03
2023-05-03T20:07:00.943Z,102698.00
2023-05-03T20:09:28.754Z,102692.63
2023-05-03T20:11:59.670Z,102691.75
2023-05-03T20:14:27.945Z,102696.19
2023-05-03T20:16:59.154Z,102689.97
2023-05-03T20:19:26.916Z,102691.75
2023-05-03T20:21:54.634Z,102693.50
2023-05-03T20:24:22.290Z,102689.94
2023-05-03T20:26:49.922Z,102699.75
2023-05-03T20:29:19.084Z,102689.88
2023-05-03T20:31:48.318Z,102695.25
2023-05-03T20:34:16.631Z,102693.47
2023-05-03T20:36:44.230Z,102687.22
2023-05-03T20:39:12.204Z,102688.13
2023-05-03T20:41:39.803Z,102693.47
2023-05-03T20:44:07.688Z,102680.94
2023-05-03T20:46:38.502Z,102687.22
2023-05-03T20:49:08.261Z,102681.00
2023-05-03T20:51:37.432Z,102682.78
2023-05-03T20:54:05.124Z,102681.84
2023-05-03T20:56:33.296Z,102677.34
2023-05-03T20:59:00.945Z,102676.44
2023-05-03T21:01:28.595Z,102672.84
2023-05-03T21:03:57.769Z,102662.13
2023-05-03T21:06:25.405Z,102671.94
2023-05-03T21:08:53.075Z,102659.41
2023-05-03T21:11:20.663Z,102658.50
2023-05-03T21:13:48.307Z,102663.84
2023-05-03T21:16:15.955Z,102663.84
2023-05-03T21:18:43.659Z,102661.16
2023-05-03T21:21:12.616Z,102661.16
2023-05-03T21:23:40.280Z,102658.47
2023-05-03T21:26:07.887Z,102656.66
2023-05-03T21:28:35.523Z,102657.56
2023-05-03T21:31:03.356Z,102653.97
2023-05-03T21:33:30.931Z,102653.06
2023-05-03T21:35:58.929Z,102651.28
2023-05-03T21:38:28.150Z,102643.22
2023-05-03T21:41:03.522Z,102645.88
2023-05-03T21:43:31.112Z,102645.88
2023-05-03T21:45:58.801Z,102636.00
2023-05-03T21:48:26.417Z,102632.41
2023-05-03T21:50:54.224Z,102627.06
2023-05-03T21:53:22.170Z,102627.06
2023-05-03T21:55:51.131Z,102623.47
2023-05-03T21:58:19.002Z,102620.75
2023-05-03T22:00:46.776Z,102616.97
2023-05-03T22:03:15.635Z,102616.69
2023-05-03T22:05:44.759Z,102615.50
2023-05-03T22:08:14.289Z,102604.72
2023-05-03T22:10:42.022Z,102602.03
2023-05-03T22:13:11.284Z,102603.88
2023-05-03T22:15:39.039Z,102603.06
2023-05-03T22:18:06.899Z,102599.66
2023-05-03T22:20:34.603Z,102602.47
2023-05-03T22:23:02.682Z,102599.94
2023-05-03T22:25:32.242Z,102603.59
2023-05-03T22:28:00.716Z,102606.38
2023-05-03T22:30:29.854Z,102591.25
2023-05-03T22:32:57.500Z,102588.66
2023-05-03T22:35:25.486Z,102591.44
2023-05-03T22:37:53.326Z,102593.28
2023-05-03T22:40:20.955Z,102591.56
2023-05-03T22:42:48.613Z,102585.41
2023-05-03T22:45:16.500Z,102587.28
2023-05-03T22:47:45.610Z,102581.09
2023-05-03T22:50:13.399Z,102587.41
2023-05-03T22:52:41.134Z,102589.22
2023-05-03T22:55:10.263Z,102587.53
2023-05-03T22:57:37.856Z,102589.38
2023-05-03T23:00:07.231Z,102587.63
2023-05-03T23:02:35.076Z,102579.59
2023-05-03T23:05:04.126Z,102582.34
2023-05-03T23:07:31.790Z,102587.75
2023-05-03T23:10:03.560Z,102586.91
2023-05-03T23:12:31.896Z,102581.56
2023-05-03T23:14:59.662Z,102580.72
2023-05-03T23:17:27.536Z,102583.44
2023-05-03T23:19:55.472Z,102579.88
2023-05-03T23:22:24.583Z,102575.47
2023-05-03T23:24:52.333Z,102568.34
2023-05-03T23:27:19.955Z,102577.28
2023-05-03T23:29:48.245Z,102576.44
2023-05-03T23:32:16.316Z,102577.34
2023-05-03T23:34:44.488Z,102580.06
2023-05-03T23:37:12.132Z,102570.28
2023-05-03T23:39:45.435Z,102572.09
2023-05-03T23:42:13.532Z,102566.75
2023-05-03T23:44:50.889Z,102561.38
2023-05-03T23:47:21.928Z,102556.09
2023-05-03T23:49:49.595Z,102563.22
2023-05-03T23:52:19.137Z,102557.03
2023-05-03T23:54:48.409Z,102554.34
2023-05-03T23:57:16.209Z,102549.88
2023-05-03T23:59:44.198Z,102545.41
